Estación de Nueva Imperial

Ultimos registro cada 15 minutos 73
Estación Fecha / Hora Temperatura Humedad Lluvia Velocidad Dirección Radiación Presion
73 Nueva Imperial 09-05-2026 18:00 9,2 74,1 0 0 330 0,6 1015,4
72 Nueva Imperial 09-05-2026 17:45 9,9 72,8 0 0 341 5,6 1015,5
71 Nueva Imperial 09-05-2026 17:30 10,5 71,3 0 0 293 9,4 1015,5
70 Nueva Imperial 09-05-2026 17:15 11,1 69 0 0 272 14,4 1015,3
69 Nueva Imperial 09-05-2026 17:00 11,9 65,8 0 0,3 53 19,4 1015,6
68 Nueva Imperial 09-05-2026 16:45 12,3 64,4 0,2 0,3 352 21,9 1015,7
67 Nueva Imperial 09-05-2026 16:30 13,4 60,6 0 0,3 17 181,9 1015,9
66 Nueva Imperial 09-05-2026 16:15 15,3 58 0 0,3 44 226,9 1015,9
65 Nueva Imperial 09-05-2026 16:00 16 54,9 0 0,3 32 264,4 1016
64 Nueva Imperial 09-05-2026 15:45 16,6 54,1 0 0,3 13 300,6 1016
63 Nueva Imperial 09-05-2026 15:30 17,7 51,6 0 0,3 27 334,4 1015,9
62 Nueva Imperial 09-05-2026 15:15 17,8 52,1 0 0,3 55 365,6 1016
61 Nueva Imperial 09-05-2026 15:00 18,3 48,9 0,2 0,3 77 395,6 1016,1
60 Nueva Imperial 09-05-2026 14:45 18,3 51,5 0 0,7 39 423,1 1016,3
59 Nueva Imperial 09-05-2026 14:30 18,4 50,2 0 0,3 77 449,4 1016,3
58 Nueva Imperial 09-05-2026 14:15 18,9 47,7 0 0,3 49 470,6 1016,5
57 Nueva Imperial 09-05-2026 14:00 19,3 48,7 0 0,3 3 488,1 1016,6
56 Nueva Imperial 09-05-2026 13:45 18,5 50,7 0 0,3 333 504,4 1016,7
55 Nueva Imperial 09-05-2026 13:30 18,8 49,7 0 0,3 299 516,9 1016,7
54 Nueva Imperial 09-05-2026 13:15 18,5 50,7 0,2 0,3 44 518,1 1016,9
53 Nueva Imperial 09-05-2026 13:00 17,4 54,6 0 0,7 72 518,1 1017,2
52 Nueva Imperial 09-05-2026 12:45 17,9 57,4 0 0,3 279 534,4 1017,4
51 Nueva Imperial 09-05-2026 12:30 18,6 57,2 0 0,3 340 533,1 1017,6
50 Nueva Imperial 09-05-2026 12:15 18,3 56,6 0 0,3 7 529,4 1017,8
49 Nueva Imperial 09-05-2026 12:00 17,4 61,6 0 0,3 70 523,1 1017,8
48 Nueva Imperial 09-05-2026 11:45 17,3 60 0 1 98 513,1 1018
47 Nueva Imperial 09-05-2026 11:30 14,2 56,5 0,2 2 108 498,1 1018,2
46 Nueva Imperial 09-05-2026 11:15 13,8 61,2 0 2 110 478,1 1018,4
45 Nueva Imperial 09-05-2026 11:00 14 65,6 0 2 104 456,9 1018,7
44 Nueva Imperial 09-05-2026 10:45 13,4 64,6 0 1,3 104 431,9 1018,8
43 Nueva Imperial 09-05-2026 10:30 13,1 71,6 0 0,7 101 405,6 1018,7
42 Nueva Imperial 09-05-2026 10:15 11,3 77,4 0 0,3 88 339,4 1019
41 Nueva Imperial 09-05-2026 10:00 10,1 83,4 0 0 34 106,9 1019,1
40 Nueva Imperial 09-05-2026 09:45 8,6 83,5 0 0 104 175,6 1019,1
39 Nueva Imperial 09-05-2026 09:30 8,8 84,7 0 0 319 211,9 1019,3
38 Nueva Imperial 09-05-2026 09:15 7,8 87 0,2 0 264 234,4 1019,1
37 Nueva Imperial 09-05-2026 09:00 6,8 89,9 0 0 264 204,4 1019,1
36 Nueva Imperial 09-05-2026 08:45 4,7 92,7 0 0 264 171,9 1018,9
35 Nueva Imperial 09-05-2026 08:30 4,4 93,9 0 0 264 138,1 1018,9
34 Nueva Imperial 09-05-2026 08:15 3 95,1 0 0 264 95,6 1018,6
33 Nueva Imperial 09-05-2026 08:00 2,1 96 0 0 264 48,1 1018,5
32 Nueva Imperial 09-05-2026 07:45 1,5 95,6 0 0 264 5,6 1018,3
31 Nueva Imperial 09-05-2026 07:30 1,9 95 0 0 264 0,6 1018,3
30 Nueva Imperial 09-05-2026 07:15 2,1 94,2 0 0 264 0,6 1018,4
29 Nueva Imperial 09-05-2026 07:00 2,3 94 0 0 260 0,6 1018,4
28 Nueva Imperial 09-05-2026 06:45 2,2 94,1 0 0 248 0,6 1018,4
27 Nueva Imperial 09-05-2026 06:30 2,9 93,6 0 0 240 0,6 1018,4
26 Nueva Imperial 09-05-2026 06:15 3 93,1 0 0 241 0,6 1018,6
25 Nueva Imperial 09-05-2026 06:00 3,1 93,2 0,2 0,3 271 0,6 1018,4
24 Nueva Imperial 09-05-2026 05:45 3,4 93,1 0 0 289 0,6 1018,4
23 Nueva Imperial 09-05-2026 05:30 3,3 93,2 0 0 309 0,6 1018,4
22 Nueva Imperial 09-05-2026 05:15 3,7 93,2 0 0 309 0,6 1018,4
21 Nueva Imperial 09-05-2026 05:00 3,7 94,5 0 0 10 0,6 1018,4
20 Nueva Imperial 09-05-2026 04:45 3,4 95,2 0 0 22 0,6 1018,5
19 Nueva Imperial 09-05-2026 04:30 3,3 95,7 0 0 22 0,6 1018,6
18 Nueva Imperial 09-05-2026 04:15 3,6 96,2 0 0 29 0,6 1018,6
17 Nueva Imperial 09-05-2026 04:00 3,7 96,5 0 0 44 0,6 1018,7
16 Nueva Imperial 09-05-2026 03:45 3,8 97,2 0 0 72 0,6 1018,8
15 Nueva Imperial 09-05-2026 03:30 3,6 98,1 0,2 0 84 0,6 1018,9
14 Nueva Imperial 09-05-2026 03:15 3,7 98,5 0 0 15 0,6 1019
13 Nueva Imperial 09-05-2026 03:00 3,7 98,3 0 0 312 0,6 1019,2
12 Nueva Imperial 09-05-2026 02:45 3,7 98,5 0 0 314 0,6 1019,3
11 Nueva Imperial 09-05-2026 02:30 3,7 98,5 0 0 272 0,6 1019,6
10 Nueva Imperial 09-05-2026 02:15 4 98,5 0 0 289 0,6 1019,6
9 Nueva Imperial 09-05-2026 02:00 3,9 98,3 0 0 306 0,6 1019,7
8 Nueva Imperial 09-05-2026 01:45 4,3 98,2 0 0 306 0,6 1019,7
7 Nueva Imperial 09-05-2026 01:30 4,4 98,2 0,2 0 267 0,6 1019,7
6 Nueva Imperial 09-05-2026 01:15 4,6 98,1 0 0 279 0,6 1019,7
5 Nueva Imperial 09-05-2026 01:00 4,1 97,7 0 0 317 0,6 1019,6
4 Nueva Imperial 09-05-2026 00:45 4,5 97,9 0 0 286 0,6 1019,6
3 Nueva Imperial 09-05-2026 00:30 4,2 97,4 0 0 285 0,6 1019,5
2 Nueva Imperial 09-05-2026 00:15 4,4 97,1 0 0 285 0,6 1019,4
1 Nueva Imperial 09-05-2026 00:00 4,7 97 0 0,3 298 0,6 1019,5